Time;durP1;ratioP1;P1;durP2;ratioP2;P2;SDS_P1;SDS_P2;PMS_P1;PMS_P2;Temp;Humidity;BMP_temperature;BMP_pressure;BME280_temperature;BME280_humidity;BME280_pressure;Samples;Min_cycle;Max_cycle;Signal;HPM_P1;HPM_P2
2023/07/03 00:00:18;;;;;;;;;;;;;;;14.05;67.82;99834.79;103774;278;38790;-71
2023/07/03 00:03:13;;;;;;;8.30;5.60;;;;;;;13.94;67.93;99836.15;103888;277;39411;-72
2023/07/03 00:05:47;;;;;;;6.70;5.90;;;;;;;13.92;68.12;99835.55;103889;277;39398;-70
2023/07/03 00:08:22;;;;;;;8.30;5.90;;;;;;;13.90;68.25;99840.23;103890;277;40133;-70
2023/07/03 00:11:02;;;;;;;7.50;5.80;;;;;;;13.88;68.41;99842.33;103920;277;38341;-69
2023/07/03 00:13:42;;;;;;;8.40;5.70;;;;;;;13.85;68.46;99847.89;103898;277;38531;-69
2023/07/03 00:16:25;;;;;;;8.80;5.50;;;;;;;13.83;68.48;99841.90;103941;277;38290;-71
2023/07/03 00:19:00;;;;;;;8.90;6.40;;;;;;;13.78;68.57;99841.51;103849;277;39868;-70
2023/07/03 00:21:38;;;;;;;8.30;5.10;;;;;;;13.74;68.97;99844.02;103906;277;38421;-71
2023/07/03 00:24:17;;;;;;;8.70;5.60;;;;;;;13.70;69.04;99846.56;103915;277;39016;-69
2023/07/03 00:26:58;;;;;;;7.30;6.00;;;;;;;13.63;69.15;99847.48;103891;277;38324;-70
2023/07/03 00:29:34;;;;;;;7.20;5.50;;;;;;;13.56;69.27;99852.65;103924;277;38395;-72
2023/07/03 00:32:10;;;;;;;7.90;5.20;;;;;;;13.47;69.63;99858.04;103896;277;39482;-72
2023/07/03 00:34:47;;;;;;;8.10;5.70;;;;;;;13.40;69.64;99860.07;103915;277;38553;-70
2023/07/03 00:37:21;;;;;;;11.80;5.70;;;;;;;13.34;70.03;99861.10;103930;277;38382;-71
2023/07/03 00:39:55;;;;;;;11.20;5.70;;;;;;;13.29;70.38;99862.26;103925;277;39653;-71
2023/07/03 00:42:30;;;;;;;6.20;4.80;;;;;;;13.23;70.62;99864.14;103869;277;39584;-70
2023/07/03 00:45:05;;;;;;;5.80;5.20;;;;;;;13.19;70.93;99865.42;103954;277;39975;-71
2023/07/03 00:47:39;;;;;;;8.60;5.60;;;;;;;13.16;71.10;99866.43;103887;277;38797;-71
2023/07/03 00:50:14;;;;;;;7.10;6.20;;;;;;;13.13;71.22;99871.70;103932;277;38267;-72
2023/07/03 00:52:47;;;;;;;8.50;5.80;;;;;;;13.08;71.25;99871.30;103909;277;38235;-73
2023/07/03 00:55:21;;;;;;;10.30;6.00;;;;;;;13.02;71.53;99873.36;103981;277;38487;-70
2023/07/03 00:57:55;;;;;;;6.60;5.60;;;;;;;12.97;71.83;99875.79;103911;277;39655;-71
2023/07/03 01:00:38;;;;;;;9.10;6.10;;;;;;;12.91;71.90;99877.16;103903;277;38363;-68
2023/07/03 01:03:18;;;;;;;11.90;6.20;;;;;;;12.84;72.05;99876.99;103690;277;38250;-68
2023/07/03 01:05:56;;;;;;;7.40;6.00;;;;;;;12.80;72.23;99875.64;103723;279;38527;-69
2023/07/03 01:08:31;;;;;;;10.10;5.90;;;;;;;12.77;72.45;99873.70;103866;277;38302;-69
2023/07/03 01:11:05;;;;;;;8.30;6.50;;;;;;;12.74;72.48;99875.29;103924;277;38944;-71
2023/07/03 01:13:39;;;;;;;7.60;6.20;;;;;;;12.72;72.91;99879.27;103891;277;39959;-71
2023/07/03 01:16:13;;;;;;;8.80;6.20;;;;;;;12.66;73.13;99879.42;103922;277;39399;-74
2023/07/03 01:18:48;;;;;;;8.20;6.20;;;;;;;12.61;73.38;99878.41;103925;277;38371;-72
2023/07/03 01:21:25;;;;;;;8.80;6.00;;;;;;;12.61;73.62;99877.02;103956;277;39434;-74
2023/07/03 01:24:04;;;;;;;8.60;6.90;;;;;;;12.62;73.95;99878.89;103902;277;38364;-73
2023/07/03 01:26:39;;;;;;;8.90;6.80;;;;;;;12.64;74.08;99874.77;103919;277;39636;-70
2023/07/03 01:29:14;;;;;;;10.60;6.70;;;;;;;12.66;74.21;99873.46;103930;277;38243;-70
2023/07/03 01:31:48;;;;;;;11.60;7.10;;;;;;;12.66;74.28;99874.32;103909;277;39632;-70
2023/07/03 01:34:22;;;;;;;11.10;6.50;;;;;;;12.66;74.30;99877.27;103743;277;38470;-70
2023/07/03 01:36:56;;;;;;;10.10;6.70;;;;;;;12.68;74.31;99879.83;103893;277;38524;-71
2023/07/03 01:39:30;;;;;;;9.10;6.60;;;;;;;12.66;74.41;99877.96;103926;277;38493;-70
2023/07/03 01:42:05;;;;;;;9.30;6.90;;;;;;;12.65;74.72;99883.98;103912;277;39638;-69
2023/07/03 01:44:39;;;;;;;11.80;8.00;;;;;;;12.67;74.81;99880.57;103936;277;38318;-71
2023/07/03 01:47:15;;;;;;;11.90;7.00;;;;;;;12.69;74.87;99880.98;103890;277;38395;-72
2023/07/03 01:49:49;;;;;;;11.50;6.70;;;;;;;12.72;75.06;99879.95;103932;277;38243;-71
2023/07/03 01:52:25;;;;;;;10.80;7.00;;;;;;;12.74;75.16;99880.36;103813;277;190364;-72
2023/07/03 01:55:02;;;;;;;10.90;7.10;;;;;;;12.75;75.16;99884.33;103894;277;39631;-72
2023/07/03 01:57:42;;;;;;;11.10;7.20;;;;;;;12.76;75.13;99884.80;103905;277;38227;-72
2023/07/03 02:00:21;;;;;;;8.40;6.60;;;;;;;12.75;75.12;99888.91;103948;277;38240;-73
2023/07/03 02:02:56;;;;;;;11.50;7.60;;;;;;;12.74;75.17;99886.83;103916;277;38229;-71
2023/07/03 02:05:32;;;;;;;10.70;6.40;;;;;;;12.75;75.36;99886.27;103970;277;39448;-73
2023/07/03 02:08:06;;;;;;;10.10;6.70;;;;;;;12.77;75.41;99888.41;103938;277;38421;-73
2023/07/03 02:10:40;;;;;;;9.50;7.30;;;;;;;12.79;75.46;99884.82;103976;265;38276;-71
2023/07/03 02:13:14;;;;;;;11.10;7.30;;;;;;;12.81;75.52;99889.95;103702;277;38235;-73
2023/07/03 02:15:48;;;;;;;10.60;7.60;;;;;;;12.82;75.59;99890.59;103912;277;39310;-73
2023/07/03 02:18:23;;;;;;;10.80;6.80;;;;;;;12.83;75.60;99886.54;103887;277;39594;-73
2023/07/03 02:20:57;;;;;;;12.20;7.10;;;;;;;12.85;75.72;99886.90;103943;277;38846;-73
2023/07/03 02:23:31;;;;;;;10.00;6.90;;;;;;;12.89;75.70;99893.00;103904;277;38545;-73
2023/07/03 02:26:05;;;;;;;12.90;7.40;;;;;;;12.88;75.53;99893.75;103939;277;38742;-71
2023/07/03 02:28:39;;;;;;;10.90;7.10;;;;;;;12.84;75.66;99896.77;103889;277;39942;-71
2023/07/03 02:31:13;;;;;;;9.30;6.70;;;;;;;12.82;75.46;99902.69;103919;277;38280;-70
2023/07/03 02:33:47;;;;;;;9.50;7.10;;;;;;;12.82;75.73;99898.48;103892;277;39390;-70
2023/07/03 02:36:24;;;;;;;9.00;7.20;;;;;;;12.84;75.92;99897.98;103946;277;38521;-69
2023/07/03 02:38:58;;;;;;;9.50;7.30;;;;;;;12.86;75.93;99899.46;103900;277;38328;-71
2023/07/03 02:41:33;;;;;;;13.50;7.40;;;;;;;12.90;76.12;99903.08;103695;279;39474;-69
2023/07/03 02:44:08;;;;;;;10.80;7.10;;;;;;;12.96;76.15;99901.76;103850;278;39924;-73
2023/07/03 02:46:42;;;;;;;11.60;6.80;;;;;;;12.99;76.22;99902.63;103936;269;38269;-70
2023/07/03 02:49:15;;;;;;;11.00;6.60;;;;;;;13.01;76.22;99901.96;103988;277;38661;-73
2023/07/03 02:51:49;;;;;;;11.40;6.90;;;;;;;13.06;76.08;99901.70;103916;277;40155;-74
2023/07/03 02:54:24;;;;;;;8.60;7.20;;;;;;;13.11;76.14;99905.65;103970;277;38444;-71
2023/07/03 02:56:58;;;;;;;11.70;7.30;;;;;;;13.15;76.12;99908.35;103920;277;39463;-68
2023/07/03 02:59:32;;;;;;;11.50;7.30;;;;;;;13.21;76.21;99908.61;103959;273;40388;-70
2023/07/03 03:02:06;;;;;;;12.00;7.00;;;;;;;13.26;76.07;99910.80;103800;278;38395;-72
2023/07/03 03:04:40;;;;;;;12.40;7.20;;;;;;;13.30;76.01;99915.61;103939;277;39021;-73
2023/07/03 03:07:14;;;;;;;10.30;7.20;;;;;;;13.35;75.87;99911.67;103910;277;39440;-74
2023/07/03 03:09:49;;;;;;;10.80;7.30;;;;;;;13.39;75.82;99912.30;103902;277;39454;-72
2023/07/03 03:12:23;;;;;;;11.30;6.90;;;;;;;13.42;75.77;99912.14;103900;277;39514;-72
2023/07/03 03:14:57;;;;;;;10.10;7.00;;;;;;;13.47;75.73;99911.32;103952;277;39629;-71
2023/07/03 03:17:31;;;;;;;11.00;6.50;;;;;;;13.51;75.62;99909.72;103878;277;38547;-72
2023/07/03 03:20:07;;;;;;;11.20;7.60;;;;;;;13.55;75.57;99912.45;103942;277;38244;-72
2023/07/03 03:22:42;;;;;;;10.70;7.00;;;;;;;13.59;75.41;99917.83;103878;277;38257;-73
2023/07/03 03:25:16;;;;;;;12.10;7.50;;;;;;;13.64;75.58;99919.44;103907;277;38248;-72
2023/07/03 03:27:50;;;;;;;11.70;6.90;;;;;;;13.70;75.49;99918.75;103910;278;38663;-72
2023/07/03 03:30:25;;;;;;;12.20;7.40;;;;;;;13.81;75.60;99920.25;103939;277;38364;-72
2023/07/03 03:32:59;;;;;;;12.60;7.60;;;;;;;14.01;75.75;99921.86;103891;277;38804;-71
2023/07/03 03:35:33;;;;;;;10.20;7.00;;;;;;;14.33;75.88;99922.34;103921;277;39595;-70
2023/07/03 03:38:07;;;;;;;9.60;7.50;;;;;;;14.78;75.34;99922.13;103901;277;40099;-72
2023/07/03 03:40:41;;;;;;;13.20;7.80;;;;;;;15.37;74.55;99926.39;103441;277;666244;-72
2023/07/03 03:43:15;;;;;;;9.30;7.10;;;;;;;16.05;74.17;99924.40;103793;278;40273;-73
2023/07/03 03:45:57;;;;;;;11.60;8.00;;;;;;;16.74;72.85;99923.28;103924;277;38442;-69
2023/07/03 03:48:31;;;;;;;10.70;7.40;;;;;;;17.47;71.10;99913.44;103918;277;38619;-70
2023/07/03 03:51:05;;;;;;;9.60;7.40;;;;;;;18.17;69.54;99907.30;103915;277;38871;-72
2023/07/03 03:53:39;;;;;;;12.70;6.90;;;;;;;18.90;67.95;99905.66;103883;277;38548;-70
2023/07/03 03:56:14;;;;;;;10.40;7.00;;;;;;;19.57;65.18;99903.80;103891;278;38635;-72
2023/07/03 03:58:50;;;;;;;8.20;7.00;;;;;;;20.16;63.28;99904.14;103884;277;39478;-71
2023/07/03 04:01:25;;;;;;;12.10;7.00;;;;;;;20.80;60.77;99909.26;103963;277;38525;-72
2023/07/03 04:04:00;;;;;;;12.10;7.10;;;;;;;21.13;58.06;99910.04;103921;277;38606;-72
2023/07/03 04:06:37;;;;;;;11.20;6.70;;;;;;;21.14;56.97;99914.21;103900;277;38468;-72
2023/07/03 04:09:11;;;;;;;10.90;7.20;;;;;;;21.13;56.23;99908.84;103957;277;38775;-70
2023/07/03 04:11:47;;;;;;;12.40;6.80;;;;;;;20.81;55.72;99911.09;103891;277;38537;-70
2023/07/03 04:14:23;;;;;;;12.60;7.60;;;;;;;20.43;55.32;99903.36;103902;277;39458;-71
2023/07/03 04:16:57;;;;;;;10.70;6.60;;;;;;;20.09;55.52;99903.64;103891;277;38602;-72
2023/07/03 04:19:32;;;;;;;10.40;7.20;;;;;;;19.85;55.66;99908.91;103911;277;38527;-71
2023/07/03 04:22:06;;;;;;;10.00;6.90;;;;;;;19.57;55.87;99900.01;103874;277;38464;-71
2023/07/03 04:24:40;;;;;;;11.50;7.40;;;;;;;19.28;56.08;99906.50;103890;277;38242;-72
2023/07/03 04:27:14;;;;;;;10.50;7.30;;;;;;;19.04;56.78;99908.61;103877;277;40053;-72
2023/07/03 04:29:48;;;;;;;11.70;7.40;;;;;;;18.85;56.96;99908.90;103935;277;38317;-72
2023/07/03 04:32:22;;;;;;;11.00;7.30;;;;;;;18.67;57.19;99911.77;103835;277;38490;-71
2023/07/03 04:34:57;;;;;;;12.20;8.00;;;;;;;18.47;57.57;99911.15;103927;277;38533;-72
2023/07/03 04:37:31;;;;;;;10.20;7.30;;;;;;;18.28;57.62;99913.39;103886;277;38286;-73
2023/07/03 04:40:06;;;;;;;13.10;7.10;;;;;;;18.22;58.60;99910.98;103911;277;38217;-73
2023/07/03 04:42:40;;;;;;;11.80;7.90;;;;;;;18.31;59.09;99903.90;103962;277;38830;-74
2023/07/03 04:45:16;;;;;;;13.10;7.10;;;;;;;18.35;59.33;99911.80;103925;277;38322;-72
2023/07/03 04:47:50;;;;;;;10.40;7.30;;;;;;;18.34;59.28;99914.69;103917;277;39449;-71
2023/07/03 04:50:25;;;;;;;12.60;7.60;;;;;;;18.43;59.74;99921.73;103928;277;38481;-72
2023/07/03 04:52:59;;;;;;;11.30;7.40;;;;;;;18.61;59.44;99920.32;103893;277;39697;-73
2023/07/03 04:55:33;;;;;;;10.00;7.30;;;;;;;18.93;59.30;99918.01;103945;277;38513;-70
2023/07/03 04:58:09;;;;;;;11.50;7.70;;;;;;;19.33;58.63;99920.09;103874;277;38810;-69
2023/07/03 05:00:44;;;;;;;12.30;7.50;;;;;;;19.61;57.80;99917.96;103794;277;174485;-72
2023/07/03 05:03:18;;;;;;;11.40;7.60;;;;;;;20.01;57.15;99925.62;103928;277;39447;-72
2023/07/03 05:05:52;;;;;;;12.80;7.60;;;;;;;20.88;56.95;99926.12;103906;277;39853;-73
2023/07/03 05:08:26;;;;;;;9.30;6.80;;;;;;;21.90;55.45;99926.30;103918;277;38484;-73
2023/07/03 05:11:00;;;;;;;11.30;7.60;;;;;;;22.96;53.44;99922.45;103938;277;38476;-70
2023/07/03 05:13:35;;;;;;;11.10;7.00;;;;;;;23.93;50.89;99930.19;103909;277;39966;-70
2023/07/03 05:16:09;;;;;;;11.40;7.30;;;;;;;24.82;47.90;99931.42;103918;277;39648;-72
2023/07/03 05:18:43;;;;;;;13.50;7.10;;;;;;;25.64;45.89;99928.94;103753;277;171731;-72
2023/07/03 05:21:17;;;;;;;8.80;6.50;;;;;;;26.36;44.34;99927.13;103979;277;38789;-71
2023/07/03 05:23:52;;;;;;;11.50;6.80;;;;;;;27.06;42.18;99927.77;103912;277;39628;-70
2023/07/03 05:26:27;;;;;;;10.50;6.80;;;;;;;27.71;40.64;99930.23;103941;277;40116;-73
2023/07/03 05:29:06;;;;;;;7.50;5.90;;;;;;;28.28;38.94;99925.27;103947;277;38421;-78
2023/07/03 05:31:40;;;;;;;10.80;6.20;;;;;;;28.86;38.58;99920.94;103907;277;38852;-71
2023/07/03 05:34:17;;;;;;;8.90;6.10;;;;;;;29.38;36.39;99919.58;103905;277;39255;-72
2023/07/03 05:36:52;;;;;;;8.00;5.80;;;;;;;29.85;35.23;99915.09;103912;277;40182;-72
2023/07/03 05:39:26;;;;;;;8.90;6.30;;;;;;;30.36;34.51;99925.35;103924;277;38402;-70
2023/07/03 05:42:00;;;;;;;9.20;6.10;;;;;;;30.65;33.88;99936.86;103875;277;38255;-71
2023/07/03 05:44:34;;;;;;;11.10;6.10;;;;;;;30.90;33.44;99935.77;103939;277;38233;-70
2023/07/03 05:47:08;;;;;;;7.90;6.00;;;;;;;31.25;32.47;99940.75;103910;277;38240;-70
2023/07/03 05:49:42;;;;;;;6.20;5.50;;;;;;;31.51;31.90;99940.16;103921;277;39567;-72
2023/07/03 05:52:16;;;;;;;7.10;5.20;;;;;;;31.77;30.71;99940.42;103910;277;38277;-72
2023/07/03 05:54:50;;;;;;;10.10;6.90;;;;;;;31.93;30.64;99939.20;103950;277;38397;-71
2023/07/03 05:57:28;;;;;;;9.70;5.90;;;;;;;32.16;30.22;99936.45;103878;277;38529;-71
2023/07/03 06:00:06;;;;;;;10.30;5.90;;;;;;;32.41;29.63;99943.02;103969;277;38336;-71
2023/07/03 06:02:39;;;;;;;7.80;5.00;;;;;;;32.61;28.77;99950.27;103876;277;38235;-72
2023/07/03 06:05:16;;;;;;;6.70;5.50;;;;;;;32.90;28.76;99962.85;103937;277;38442;-71
2023/07/03 06:07:50;;;;;;;7.50;5.60;;;;;;;33.07;28.14;99963.22;103805;277;174076;-71
2023/07/03 06:10:24;;;;;;;7.90;5.70;;;;;;;33.04;28.32;99966.73;103934;277;38279;-73
2023/07/03 06:12:58;;;;;;;8.20;5.40;;;;;;;33.19;28.07;99965.88;103908;277;38298;-72
2023/07/03 06:15:34;;;;;;;8.10;5.20;;;;;;;33.51;27.46;99962.65;103954;277;38463;-70
2023/07/03 06:18:08;;;;;;;7.60;5.90;;;;;;;33.87;27.08;99965.20;103891;277;38933;-70
2023/07/03 06:20:42;;;;;;;7.70;5.30;;;;;;;34.13;26.98;99965.15;103950;277;39881;-70
2023/07/03 06:23:16;;;;;;;9.20;5.60;;;;;;;34.30;25.68;99965.38;103938;277;38239;-70
2023/07/03 06:25:50;;;;;;;8.50;5.60;;;;;;;34.53;25.47;99964.33;103918;277;38284;-70
2023/07/03 06:28:24;;;;;;;7.40;4.90;;;;;;;34.68;25.63;99968.54;103888;277;38507;-70
2023/07/03 06:30:58;;;;;;;12.70;5.90;;;;;;;34.86;25.22;99971.40;103906;277;39736;-71
2023/07/03 06:33:32;;;;;;;9.80;5.80;;;;;;;34.99;24.56;99973.48;103713;277;39713;-71
2023/07/03 06:36:06;;;;;;;9.50;5.80;;;;;;;35.25;24.52;99975.92;103932;277;39446;-70
2023/07/03 06:38:43;;;;;;;8.80;5.40;;;;;;;35.38;24.17;99976.84;103894;277;38836;-71
2023/07/03 06:41:17;;;;;;;11.90;5.80;;;;;;;35.44;24.00;99976.09;103932;277;38496;-72
2023/07/03 06:43:51;;;;;;;8.50;5.50;;;;;;;35.57;23.65;99978.19;103788;279;39662;-73
2023/07/03 06:46:25;;;;;;;7.90;5.70;;;;;;;35.59;23.55;99977.27;103933;277;38406;-72
2023/07/03 06:49:04;;;;;;;8.80;6.10;;;;;;;35.69;23.28;99970.77;103889;277;39961;-72
2023/07/03 06:51:40;;;;;;;8.10;5.40;;;;;;;35.89;23.25;99969.21;103888;277;38489;-72
2023/07/03 06:54:14;;;;;;;8.10;5.60;;;;;;;35.71;22.57;99969.73;103937;277;38279;-71
2023/07/03 06:56:48;;;;;;;7.80;5.80;;;;;;;34.89;23.21;99969.60;103910;277;38245;-71
2023/07/03 06:59:22;;;;;;;8.30;5.60;;;;;;;34.71;24.01;99969.64;103910;277;39745;-71
2023/07/03 07:01:57;;;;;;;8.80;5.60;;;;;;;34.83;23.83;99972.46;103916;277;38228;-72
2023/07/03 07:04:30;;;;;;;9.50;5.30;;;;;;;35.15;23.16;99970.19;103957;277;39850;-73
2023/07/03 07:07:05;;;;;;;9.40;5.50;;;;;;;35.25;23.21;99968.23;103930;277;38433;-72
2023/07/03 07:09:39;;;;;;;7.10;5.50;;;;;;;35.39;23.33;99966.52;103957;277;38698;-72
2023/07/03 07:12:13;;;;;;;7.90;5.30;;;;;;;35.63;22.74;99973.90;103890;277;38499;-73
2023/07/03 07:14:47;;;;;;;7.80;5.30;;;;;;;35.76;22.26;99967.10;103890;277;38318;-72
2023/07/03 07:17:21;;;;;;;11.00;5.20;;;;;;;35.95;21.99;99965.77;103903;277;39700;-73
2023/07/03 07:19:55;;;;;;;8.30;5.50;;;;;;;36.27;21.76;99966.21;103889;277;39869;-73
2023/07/03 07:22:30;;;;;;;10.20;5.70;;;;;;;36.54;21.81;99962.31;103909;277;38333;-73
2023/07/03 07:25:04;;;;;;;7.00;5.20;;;;;;;36.82;20.95;99970.74;103926;277;40012;-69
2023/07/03 07:27:38;;;;;;;7.20;5.10;;;;;;;36.96;20.42;99971.01;103892;277;38673;-69
2023/07/03 07:30:15;;;;;;;6.70;5.20;;;;;;;37.01;20.88;99968.22;103864;277;38266;-70
2023/07/03 07:32:51;;;;;;;7.50;5.50;;;;;;;37.11;20.10;99970.48;103908;277;38272;-72
2023/07/03 07:35:25;;;;;;;;;;;;;;;37.15;19.95;99975.64;103949;277;38347;-69
2023/07/03 07:37:59;;;;;;;7.40;5.20;;;;;;;37.15;19.95;99970.20;103870;277;38572;-69
2023/07/03 07:40:35;;;;;;;8.40;4.70;;;;;;;37.25;19.21;99972.29;103858;277;39760;-69
2023/07/03 07:43:13;;;;;;;6.00;4.90;;;;;;;37.31;18.96;99971.11;103906;277;38428;-69
2023/07/03 07:46:00;;;;;;;7.20;4.20;;;;;;;37.48;18.79;99970.90;103879;277;38354;-68
2023/07/03 07:48:47;;;;;;;5.50;4.70;;;;;;;37.52;18.17;99967.01;103897;277;38481;-68
2023/07/03 07:51:22;;;;;;;8.10;4.70;;;;;;;37.52;18.20;99964.70;103921;277;38256;-71
2023/07/03 07:53:57;;;;;;;5.80;4.70;;;;;;;37.74;18.12;99961.83;103907;277;38389;-71
2023/07/03 07:56:34;;;;;;;5.10;4.20;;;;;;;37.91;18.21;99962.14;103902;277;38637;-68
2023/07/03 07:59:08;;;;;;;7.30;4.90;;;;;;;38.06;17.95;99959.33;103941;277;38414;-75
2023/07/03 08:01:43;;;;;;;7.60;4.80;;;;;;;38.28;17.52;99964.86;103923;277;38874;-71
2023/07/03 08:04:17;;;;;;;6.60;4.90;;;;;;;38.38;17.25;99961.37;103782;277;39559;-70
2023/07/03 08:06:51;;;;;;;6.60;4.80;;;;;;;38.59;17.09;99964.35;103851;277;38442;-71
2023/07/03 08:09:26;;;;;;;4.60;4.20;;;;;;;38.66;17.03;99959.59;103925;277;39586;-71
2023/07/03 08:12:05;;;;;;;6.30;4.50;;;;;;;38.61;16.73;99965.21;103897;277;38226;-71
2023/07/03 08:14:39;;;;;;;5.80;4.50;;;;;;;38.30;16.80;99967.13;103931;277;39435;-69
2023/07/03 08:17:15;;;;;;;7.90;5.00;;;;;;;38.22;17.12;99966.85;103773;277;170771;-72
2023/07/03 08:19:49;;;;;;;6.10;4.40;;;;;;;37.97;17.06;99968.06;103932;266;38341;-69
2023/07/03 08:22:23;;;;;;;6.30;4.90;;;;;;;37.72;17.30;99968.66;103803;277;39484;-69
2023/07/03 08:24:57;;;;;;;8.40;4.70;;;;;;;38.01;17.50;99969.74;103815;277;173799;-71
2023/07/03 08:27:31;;;;;;;9.90;4.80;;;;;;;37.92;17.58;99977.81;103891;277;38238;-72
2023/07/03 08:30:08;;;;;;;6.90;4.60;;;;;;;37.86;17.40;99978.61;103942;273;39662;-69
2023/07/03 08:32:46;;;;;;;7.10;4.60;;;;;;;37.78;16.97;99976.65;103904;277;39874;-69
2023/07/03 08:35:23;;;;;;;5.90;4.50;;;;;;;37.11;17.47;99979.15;103783;279;38335;-71
2023/07/03 08:37:57;;;;;;;6.30;4.40;;;;;;;36.61;17.52;99971.54;103906;277;39087;-72
2023/07/03 08:40:32;;;;;;;8.20;4.90;;;;;;;36.51;18.15;99972.06;103949;277;39571;-71
2023/07/03 08:43:08;;;;;;;4.80;4.30;;;;;;;36.92;18.05;99970.36;103733;277;39427;-71
2023/07/03 08:45:46;;;;;;;7.10;4.70;;;;;;;37.15;17.77;99968.59;103845;277;39560;-70
2023/07/03 08:48:23;;;;;;;7.80;4.50;;;;;;;37.33;17.77;99961.83;103879;277;38731;-71
2023/07/03 08:51:00;;;;;;;5.90;4.80;;;;;;;37.73;17.53;99966.88;103721;279;38548;-68
2023/07/03 08:53:47;;;;;;;7.70;4.80;;;;;;;38.09;17.47;99962.55;103881;277;39926;-68
2023/07/03 08:56:29;;;;;;;6.70;4.70;;;;;;;38.24;17.38;99961.09;103763;277;173820;-69
2023/07/03 08:59:08;;;;;;;8.00;4.50;;;;;;;38.20;17.20;99960.58;103865;277;38545;-69
2023/07/03 09:01:56;;;;;;;6.90;4.70;;;;;;;38.03;16.74;99964.09;103779;278;38424;-71
2023/07/03 09:04:41;;;;;;;7.70;5.10;;;;;;;37.98;17.04;99962.02;103822;279;38594;-70
2023/07/03 09:07:18;;;;;;;7.40;5.60;;;;;;;37.73;17.02;99962.80;103894;277;38814;-70
2023/07/03 09:09:56;;;;;;;6.60;4.30;;;;;;;37.49;17.50;99970.65;103931;277;38295;-71
2023/07/03 09:12:32;;;;;;;7.10;5.10;;;;;;;37.39;17.35;99970.83;103916;277;38263;-73
2023/07/03 09:15:11;;;;;;;7.30;5.20;;;;;;;36.89;17.27;99964.13;103932;277;39251;-68
2023/07/03 09:17:51;;;;;;;6.90;4.80;;;;;;;35.89;17.99;99965.69;103916;277;38982;-68
2023/07/03 09:20:27;;;;;;;8.10;5.30;;;;;;;35.43;18.88;99967.49;103951;277;38296;-71
2023/07/03 09:23:03;;;;;;;6.70;5.20;;;;;;;35.10;19.11;99968.36;103936;277;39403;-71
2023/07/03 09:25:41;;;;;;;8.50;5.20;;;;;;;34.69;19.72;99962.85;103943;277;39817;-72
2023/07/03 09:28:14;;;;;;;8.50;5.30;;;;;;;34.29;20.26;99961.95;103955;277;38533;-72
2023/07/03 09:30:48;;;;;;;9.00;5.60;;;;;;;34.05;20.03;99964.77;103954;277;39418;-70
2023/07/03 09:33:22;;;;;;;9.90;5.30;;;;;;;33.74;20.46;99963.71;103908;277;39817;-70
2023/07/03 09:35:56;;;;;;;7.30;5.90;;;;;;;33.42;21.15;99962.65;103942;277;38752;-70
2023/07/03 09:38:31;;;;;;;8.80;5.90;;;;;;;33.21;21.65;99962.58;103937;277;40514;-71
2023/07/03 09:41:07;;;;;;;8.30;5.70;;;;;;;33.06;21.43;99954.30;103909;277;40010;-69
2023/07/03 09:43:46;;;;;;;10.40;6.50;;;;;;;32.97;21.64;99953.46;103883;277;39302;-69
2023/07/03 09:46:21;;;;;;;7.70;5.80;;;;;;;32.92;22.60;99944.43;103941;277;38260;-71
2023/07/03 09:48:54;;;;;;;10.50;6.50;;;;;;;32.86;22.48;99944.67;103683;277;38463;-71
2023/07/03 09:51:31;;;;;;;8.80;6.30;;;;;;;32.92;23.06;99945.97;103916;277;38216;-71
2023/07/03 09:54:19;;;;;;;11.30;5.80;;;;;;;33.11;22.95;99940.64;103913;277;38295;-71
2023/07/03 09:56:55;;;;;;;8.80;5.80;;;;;;;32.95;22.12;99943.41;103924;277;38635;-68
2023/07/03 09:59:31;;;;;;;9.10;5.70;;;;;;;32.53;22.47;99943.47;103936;277;40294;-69
2023/07/03 10:02:08;;;;;;;9.30;5.90;;;;;;;32.33;23.08;99940.02;103934;277;38764;-70
2023/07/03 10:04:47;;;;;;;7.90;5.50;;;;;;;32.37;23.32;99948.00;103930;277;38388;-71
2023/07/03 10:07:21;;;;;;;8.40;5.60;;;;;;;32.32;22.56;99951.35;103904;277;39416;-71
2023/07/03 10:09:55;;;;;;;9.60;6.20;;;;;;;32.28;22.86;99946.57;103998;277;40059;-70
2023/07/03 10:12:32;;;;;;;8.60;5.90;;;;;;;32.09;22.60;99950.52;103911;277;38522;-70
2023/07/03 10:15:09;;;;;;;8.70;5.90;;;;;;;31.97;23.78;99943.12;103946;277;39415;-70
2023/07/03 10:17:49;;;;;;;10.70;6.40;;;;;;;31.94;23.23;99939.91;103921;277;38411;-70
2023/07/03 10:20:26;;;;;;;11.60;6.10;;;;;;;31.91;23.63;99939.16;103965;277;38243;-71
2023/07/03 10:23:03;;;;;;;8.70;6.10;;;;;;;31.91;23.68;99928.00;103902;277;38275;-71
2023/07/03 10:25:40;;;;;;;12.90;6.20;;;;;;;31.88;24.17;99933.24;103940;277;39045;-71
2023/07/03 10:28:15;;;;;;;11.30;6.00;;;;;;;31.85;23.41;99935.03;103892;277;38596;-71
2023/07/03 10:30:50;;;;;;;11.70;6.30;;;;;;;31.79;23.20;99936.35;103919;277;38412;-70
2023/07/03 10:33:28;;;;;;;9.40;5.90;;;;;;;31.76;23.11;99931.54;103911;277;38559;-70
2023/07/03 10:36:03;;;;;;;8.20;6.10;;;;;;;31.78;23.47;99925.09;103979;277;39608;-69
2023/07/03 10:38:41;;;;;;;12.80;7.00;;;;;;;31.72;23.82;99923.63;103851;277;39421;-69
2023/07/03 10:41:17;;;;;;;12.00;6.00;;;;;;;31.62;23.39;99922.24;103957;277;38276;-72
2023/07/03 10:43:55;;;;;;;9.20;6.00;;;;;;;31.47;23.53;99923.80;103905;277;39691;-72
2023/07/03 10:46:31;;;;;;;9.50;6.00;;;;;;;31.32;23.48;99929.30;103659;279;173968;-71
2023/07/03 10:49:13;;;;;;;10.30;6.30;;;;;;;31.20;23.58;99926.08;103918;277;38237;-71
2023/07/03 10:51:53;;;;;;;8.30;6.40;;;;;;;31.11;23.76;99926.21;103904;277;38228;-72
2023/07/03 10:54:31;;;;;;;8.00;5.80;;;;;;;30.99;24.27;99926.09;103989;277;38252;-71
2023/07/03 10:57:07;;;;;;;9.00;6.10;;;;;;;30.77;24.07;99922.56;103889;277;39450;-72
2023/07/03 10:59:47;;;;;;;9.30;6.60;;;;;;;30.61;24.50;99924.62;103955;277;38506;-68
2023/07/03 11:02:36;;;;;;;10.60;5.90;;;;;;;30.53;24.58;99925.99;103906;277;39608;-69
2023/07/03 11:05:15;;;;;;;;;;;;;;;30.49;24.52;99919.48;103831;266;175094;-68
2023/07/03 11:07:59;;;;;;;8.10;6.50;;;;;;;30.34;24.95;99913.50;103886;277;38228;-69
2023/07/03 11:10:40;;;;;;;10.30;6.60;;;;;;;30.14;24.72;99915.16;103842;277;38507;-75
2023/07/03 11:13:19;;;;;;;9.60;6.60;;;;;;;29.87;25.36;99916.27;103885;277;38227;-75
2023/07/03 11:15:59;;;;;;;10.30;6.20;;;;;;;29.63;25.56;99920.83;103725;279;39732;-76
2023/07/03 11:18:56;;;;;;;11.40;7.00;;;;;;;29.47;25.50;99922.21;103678;280;39179;-76
2023/07/03 11:21:42;;;;;;;11.50;6.00;;;;;;;29.30;25.44;99917.34;103944;277;39663;-74
2023/07/03 11:24:19;;;;;;;9.70;5.90;;;;;;;29.17;25.95;99922.33;103976;277;38276;-73
2023/07/03 11:26:56;;;;;;;9.80;6.30;;;;;;;29.03;26.67;99925.78;103775;277;38977;-72
2023/07/03 11:29:30;;;;;;;10.60;6.60;;;;;;;28.88;26.42;99918.27;103720;277;38764;-75
2023/07/03 11:32:04;;;;;;;9.60;6.40;;;;;;;28.70;26.18;99916.20;103704;279;38335;-73
2023/07/03 11:34:39;;;;;;;11.20;6.50;;;;;;;28.49;26.75;99917.86;103876;277;174358;-77
2023/07/03 11:37:37;;;;;;;8.00;6.20;;;;;;;28.43;27.52;99920.17;104015;277;39446;-77
2023/07/03 11:40:34;;;;;;;10.50;6.40;;;;;;;28.33;27.67;99916.70;104051;277;38212;-76
2023/07/03 11:43:33;;;;;;;10.60;6.80;;;;;;;28.20;27.85;99916.73;103494;277;40023;-77
2023/07/03 11:46:24;;;;;;;11.70;6.30;;;;;;;28.10;28.48;99917.52;103742;278;38218;-73
2023/07/03 11:49:01;;;;;;;10.70;6.40;;;;;;;28.03;28.43;99916.85;103882;277;39585;-69
2023/07/03 11:51:38;;;;;;;11.20;6.60;;;;;;;28.06;28.33;99914.58;103869;277;39452;-71
2023/07/03 11:54:22;;;;;;;10.00;6.50;;;;;;;28.27;28.23;99912.38;103748;277;38301;-70
2023/07/03 11:57:05;;;;;;;10.00;6.70;;;;;;;28.49;28.26;99900.14;103902;277;39459;-74
2023/07/03 11:59:43;;;;;;;10.50;6.10;;;;;;;28.57;28.49;99889.43;103912;277;38459;-77
2023/07/03 12:02:53;;;;;;;8.60;5.90;;;;;;;28.56;27.91;99895.84;103887;277;38485;-77
2023/07/03 12:05:59;;;;;;;9.40;6.10;;;;;;;28.51;28.14;99893.58;103917;277;38336;-69
2023/07/03 12:08:49;;;;;;;9.30;6.50;;;;;;;28.49;28.04;99883.04;103916;277;40091;-68
2023/07/03 12:11:27;;;;;;;14.30;7.30;;;;;;;28.43;27.98;99895.00;103949;277;38511;-71